Cherry, IL (61317)

9:19 AM CST en Febrero 22, 2017 (GMT -0600)
Lyons Farms | | Change Station
Aviso en curso: Dense Fog Advisory

Alt 659 ft 41.44 °N, 89.11 °W | Updated 5 seconds ago

Niebla
Niebla
56.3 ° F
Sensación térmica 56.3 ° F
N
8.0
Viento Variable Viento desde SO

Hoy
Alta -- | Baja -- ° F
--% Posibilidad de precipitaciones
Ayer
Alta -- | Baja -- ° F
Precip. -- pul
Presión 29.80 pul
Visibilidad 3.0 Millas
Nubes Nublado 300 ft
Punto de rocío 52 ° F
Humedad 88%
Precipitaciones 0.00 pul
Espesor de la nieve No disponible.
6:41 AM 5:39 PM
Creciente menguante, 17% visible
METAR KVYS 221455Z AUTO 23010KT 3SM BR OVC003 12/12 A2980 RMK AO2 T01220116
Presión 29.80 pul
Visibilidad 3.0 Millas
Nubes Nublado 300 ft
Punto de rocío 52 ° F
Humedad 88%
Precipitaciones 0.00 pul
Espesor de la nieve No disponible.
6:41 AM 5:39 PM
Creciente menguante, 17% visible
METAR KVYS 221455Z AUTO 23010KT 3SM BR OVC003 12/12 A2980 RMK AO2 T01220116

Get Your Daily Forecast Email!

Thanks for signing up!

Be on the lookout for a verification email in your inbox.

You'll start receiving the daily forecast at 8 AM.

×

10-Day Weather Forecast

Almanac

Astronomía

Feb. 22, 2017 Salida Puesta
Hora real
Crepúsculo civil
Crepúsculo náutico
Crepúsculo astronómico
Luna
Horas de luz
Horas de luz
Tomorrow will be .
, % of the Moon is Illuminated

Extremos de hoy

Máximos del estado Bajos del estado

Community

WunderPhotos

Upload Photos

1,962,540 ¡fotos cargadas!

WunderBlog® & News

Nearby

Calidad del aire

  Calidad del aire Índice AQ Contaminante
Not available.

Grosos de nieve

Estación Profundido Altura

Actividad de terremotos

Ciudad Distance Mag. Tiempo y dato
Magnitud mínima muestra es 2,5.

Temperaturas de aguas costeras

Lugar Temperatura

Stations

Estaciones meteorológicas cercanas

Ubicación de la estación Temp. Vientos helados Punto de rocío Humedad Viento Precip. Alt Actualizado Tipo
                   

Watches & Warnings

Dense Fog Advisory
Issued: 8:50 AM CST Feb. 22, 2017 – National Weather Service

... Dense fog advisory now in effect until noon CST today...

* visibilities... visibilities will be widespread under 1/4 mile.

* Timing... the fog will remain dense through 11 am... and begin to
lift by noon.

* Impacts... visibility under 1/4 mile at times will be
widespread... with some locations seeing near zero visibility at
times.

Precautionary/preparedness actions...

A dense fog advisory means visibilities will frequently be
reduced to less than one quarter mile. If driving... slow down...
use your headlights... and leave plenty of distance ahead of you.



Aj